Time;durP1;ratioP1;P1;durP2;ratioP2;P2;SDS_P1;SDS_P2;PMS_P1;PMS_P2;Temp;Humidity;BMP_temperature;BMP_pressure;BME280_temperature;BME280_humidity;BME280_pressure;Samples;Min_cycle;Max_cycle;Signal;HPM_P1;HPM_P2
2023/02/23 00:01:54;;;;;;;83.90;41.60;;;;;;;7.26;100.00;101104.28;5133161;28;20039;-58
2023/02/23 00:04:23;;;;;;;81.88;42.85;;;;;;;7.21;100.00;101108.88;5133139;28;20410;-59
2023/02/23 00:06:52;;;;;;;85.25;43.78;;;;;;;7.19;100.00;101111.56;5133315;28;20530;-59
2023/02/23 00:09:23;;;;;;;82.70;42.22;;;;;;;7.21;100.00;101107.13;5133047;28;20158;-59
2023/02/23 00:11:55;;;;;;;88.32;43.45;;;;;;;7.21;100.00;101107.13;5127374;28;20043;-49
2023/02/23 00:14:26;;;;;;;86.00;42.58;;;;;;;7.16;100.00;101109.09;5129949;27;20050;-51
2023/02/23 00:16:55;;;;;;;91.70;43.38;;;;;;;7.17;100.00;101105.56;5130537;27;20122;-50
2023/02/23 00:19:23;;;;;;;90.47;42.78;;;;;;;7.19;100.00;101101.09;5131193;27;20049;-51
2023/02/23 00:21:52;;;;;;;83.95;42.25;;;;;;;7.17;100.00;101100.34;5132934;27;20134;-50
2023/02/23 00:24:25;;;;;;;82.13;41.05;;;;;;;7.15;100.00;101099.53;5132199;27;20047;-52
2023/02/23 00:26:55;;;;;;;83.30;41.50;;;;;;;7.17;100.00;101105.56;5134034;27;20050;-52
2023/02/23 00:29:24;;;;;;;87.32;44.00;;;;;;;7.17;100.00;101099.47;5136655;27;20096;-48
2023/02/23 00:31:55;;;;;;;90.95;44.00;;;;;;;7.18;100.00;101101.16;5136571;27;20042;-47
2023/02/23 00:34:24;;;;;;;89.88;43.05;;;;;;;7.15;100.00;101109.16;5136447;27;20505;-48
2023/02/23 00:36:54;;;;;;;87.18;44.25;;;;;;;7.14;100.00;101108.31;5132561;27;20054;-49
2023/02/23 00:39:24;;;;;;;85.35;40.53;;;;;;;7.15;100.00;101104.78;5131524;27;20047;-48
2023/02/23 00:41:55;;;;;;;83.88;42.58;;;;;;;7.09;100.00;101111.16;5131972;27;20057;-48
2023/02/23 00:44:24;;;;;;;87.15;43.42;;;;;;;7.11;100.00;101111.91;5131898;27;20577;-46
2023/02/23 00:46:53;;;;;;;89.93;43.78;;;;;;;7.11;100.00;101113.69;5132394;27;20495;-49
2023/02/23 00:49:22;;;;;;;87.55;43.33;;;;;;;7.10;100.00;101112.84;5132470;27;20107;-52
2023/02/23 00:51:50;;;;;;;82.65;40.42;;;;;;;7.10;100.00;101107.63;5135187;27;20054;-49
2023/02/23 00:54:21;;;;;;;86.80;40.85;;;;;;;7.12;100.00;101112.78;5133204;27;20057;-48
2023/02/23 00:56:50;;;;;;;86.03;43.28;;;;;;;7.11;100.00;101108.44;5131305;27;20067;-58
2023/02/23 00:59:20;;;;;;;82.28;41.92;;;;;;;7.10;100.00;101115.47;5132356;27;20560;-59
2023/02/23 01:01:48;;;;;;;84.78;41.95;;;;;;;7.07;100.00;101106.91;5132748;27;20047;-58
2023/02/23 01:04:16;;;;;;;85.15;41.08;;;;;;;7.08;100.00;101112.06;5133565;27;20100;-58
2023/02/23 01:06:45;;;;;;;81.85;42.05;;;;;;;7.09;100.00;101113.75;5136593;27;20054;-58
2023/02/23 01:09:26;;;;;;;82.30;41.60;;;;;;;7.08;100.00;101109.44;5136355;27;20067;-59
2023/02/23 01:11:56;;;;;;;83.07;40.65;;;;;;;7.08;100.00;101113.84;5136205;27;20043;-59
2023/02/23 01:14:25;;;;;;;79.00;42.55;;;;;;;7.05;100.00;101117.44;5135255;27;20051;-59
2023/02/23 01:16:54;;;;;;;82.85;40.75;;;;;;;7.07;100.00;101112.97;5132028;27;20082;-59
2023/02/23 01:19:22;;;;;;;79.63;42.38;;;;;;;7.08;100.00;101106.00;5132287;27;20490;-59
2023/02/23 01:21:50;;;;;;;79.22;42.42;;;;;;;7.06;100.00;101108.69;5128568;27;20529;-59
2023/02/23 01:24:18;;;;;;;83.63;40.97;;;;;;;7.07;100.00;101112.97;5135050;27;20053;-59
2023/02/23 01:26:46;;;;;;;75.35;39.65;;;;;;;7.07;100.00;101117.34;5132359;27;20637;-59
2023/02/23 01:29:17;;;;;;;82.85;41.20;;;;;;;7.07;100.00;101112.13;5131752;27;20051;-59
2023/02/23 01:31:50;;;;;;;86.38;41.47;;;;;;;7.06;100.00;101113.03;5132442;27;20081;-59
2023/02/23 01:34:20;;;;;;;83.63;42.38;;;;;;;7.05;100.00;101113.97;5132412;27;20042;-59
2023/02/23 01:36:49;;;;;;;76.65;38.75;;;;;;;7.06;100.00;101115.66;5132541;27;20062;-59
2023/02/23 01:39:19;;;;;;;83.07;41.10;;;;;;;7.02;100.00;101116.72;5134550;27;20125;-59
2023/02/23 01:41:50;;;;;;;77.78;41.10;;;;;;;7.01;100.00;101110.66;5131862;27;20045;-59
2023/02/23 01:44:58;;;;;;;74.75;37.85;;;;;;;7.03;100.00;101110.56;5132108;27;20043;-59
2023/02/23 01:47:28;;;;;;;82.07;38.28;;;;;;;7.05;100.00;101112.19;5131775;27;20142;-59
2023/02/23 01:49:57;;;;;;;76.13;39.45;;;;;;;7.06;100.00;101115.66;5132431;27;20058;-59
2023/02/23 01:52:28;;;;;;;80.25;39.22;;;;;;;7.02;100.00;101122.81;5131506;27;20047;-60
2023/02/23 01:54:56;;;;;;;81.03;39.00;;;;;;;7.02;100.00;101116.72;5129792;27;20047;-59
2023/02/23 01:57:25;;;;;;;79.38;39.97;;;;;;;7.05;100.00;101122.66;5128936;27;20062;-60
2023/02/23 01:59:57;;;;;;;77.05;38.38;;;;;;;6.99;100.00;101119.47;5132426;27;20833;-59
2023/02/23 02:02:32;;;;;;;76.53;38.75;;;;;;;6.99;100.00;101122.09;5131403;27;20074;-59
2023/02/23 02:05:03;;;;;;;81.43;40.28;;;;;;;7.02;100.00;101122.81;5131782;27;20514;-59
2023/02/23 02:07:35;;;;;;;78.30;39.97;;;;;;;7.01;100.00;101128.94;5131589;27;20051;-59
2023/02/23 02:13:04;;;;;;;74.28;36.53;;;;;;;7.00;100.00;101127.25;5132014;27;20086;-59
2023/02/23 02:15:41;;;;;;;72.23;36.10;;;;;;;7.02;100.00;101116.72;5134791;27;20074;-59
2023/02/23 02:18:22;;;;;;;77.20;38.13;;;;;;;7.03;100.00;101116.63;5132024;27;20051;-58
2023/02/23 02:21:29;;;;;;;70.50;36.33;;;;;;;6.97;100.00;101106.47;5125321;27;20513;-59
2023/02/23 02:24:31;;;;;;;68.70;36.22;;;;;;;7.01;100.00;101108.03;5133285;27;20078;-59
2023/02/23 02:27:16;;;;;;;73.47;35.67;;;;;;;7.01;100.00;101109.78;5131770;27;20084;-59
2023/02/23 02:30:41;;;;;;;68.95;34.65;;;;;;;6.99;100.00;101111.63;5132868;27;20462;-59
2023/02/23 02:33:42;;;;;;;69.70;34.72;;;;;;;6.89;100.00;101114.66;5041651;28;20064;-59
2023/02/23 02:36:32;;;;;;;71.53;36.33;;;;;;;6.93;100.00;101116.22;5133054;27;20047;-59
2023/02/23 02:39:16;;;;;;;66.32;33.17;;;;;;;6.95;100.00;101108.31;5122755;27;20497;-59
2023/02/23 02:41:52;;;;;;;74.53;35.58;;;;;;;6.98;100.00;101112.53;5130510;27;20050;-59
2023/02/23 02:44:31;;;;;;;71.57;36.10;;;;;;;6.96;100.00;101117.00;5130837;27;20570;-59
2023/02/23 02:47:04;;;;;;;70.32;34.80;;;;;;;6.98;100.00;101105.56;5130912;27;20043;-48
2023/02/23 02:49:42;;;;;;;68.68;34.83;;;;;;;7.00;100.00;101115.94;5127832;27;20066;-52
2023/02/23 02:52:17;;;;;;;65.80;33.03;;;;;;;6.94;100.00;101106.63;5130457;27;20050;-48
2023/02/23 02:54:52;;;;;;;68.43;35.00;;;;;;;6.97;100.00;101110.84;5130267;27;20520;-48
2023/02/23 02:57:22;;;;;;;67.40;35.35;;;;;;;6.94;100.00;101107.47;5130868;27;20158;-46
2023/02/23 04:19:15;;;;;;;66.25;31.98;;;;;;;6.85;100.00;101146.25;5132325;27;19956;-50
2023/02/23 04:21:43;;;;;;;72.65;33.95;;;;;;;6.85;100.00;101139.25;5132912;27;20043;-49
2023/02/23 04:24:11;;;;;;;66.47;33.28;;;;;;;6.89;100.00;101147.81;5133181;27;20375;-49
2023/02/23 04:26:39;;;;;;;65.97;33.83;;;;;;;6.90;100.00;101150.34;5133227;27;20046;-48
2023/02/23 04:29:07;;;;;;;66.07;33.30;;;;;;;6.91;100.00;101149.44;5133746;27;20058;-50
2023/02/23 04:31:36;;;;;;;66.00;33.95;;;;;;;6.88;100.00;101143.50;5132893;27;20047;-49
2023/02/23 04:34:07;;;;;;;72.35;35.15;;;;;;;6.89;100.00;101151.28;5136384;27;20067;-49
2023/02/23 04:36:36;;;;;;;73.32;36.83;;;;;;;6.88;100.00;101149.56;5131811;27;20059;-50
2023/02/23 04:39:04;;;;;;;71.30;36.22;;;;;;;6.90;100.00;101158.19;5134563;27;20126;-48
2023/02/23 04:41:32;;;;;;;71.05;34.25;;;;;;;6.90;100.00;101154.75;5134557;27;20084;-48
2023/02/23 04:44:00;;;;;;;72.70;36.70;;;;;;;6.92;100.00;101155.50;5133508;27;20517;-50
2023/02/23 04:46:32;;;;;;;69.47;36.30;;;;;;;6.93;100.00;101159.84;5132297;27;20108;-48
2023/02/23 04:49:00;;;;;;;71.55;36.13;;;;;;;6.93;100.00;101160.66;5132952;27;20057;-48
2023/02/23 04:51:31;;;;;;;77.32;37.35;;;;;;;6.87;100.00;101163.56;5130285;27;20054;-47
2023/02/23 04:54:01;;;;;;;75.82;38.17;;;;;;;6.86;100.00;101167.09;5133131;27;20051;-51
2023/02/23 04:56:29;;;;;;;65.93;35.17;;;;;;;6.90;100.00;101158.19;5132464;27;20127;-48
2023/02/23 04:58:57;;;;;;;73.78;35.42;;;;;;;6.88;100.00;101161.81;5132910;27;20077;-50
2023/02/23 05:01:25;;;;;;;71.80;35.75;;;;;;;6.91;100.00;101159.03;5132073;27;20505;-49
2023/02/23 05:03:54;;;;;;;74.70;36.80;;;;;;;6.88;100.00;101170.47;5132040;27;20067;-48
2023/02/23 05:06:22;;;;;;;72.47;35.08;;;;;;;6.87;100.00;101165.31;5132247;27;20386;-48
2023/02/23 05:08:53;;;;;;;71.68;36.40;;;;;;;6.84;100.00;101168.91;5133790;27;20126;-51
2023/02/23 05:11:23;;;;;;;75.88;37.83;;;;;;;6.85;100.00;101170.63;5132901;27;20047;-53
2023/02/23 05:13:53;;;;;;;74.22;35.92;;;;;;;6.85;100.00;101170.63;5134787;27;20047;-51
2023/02/23 05:16:21;;;;;;;72.68;35.15;;;;;;;6.84;100.00;101174.16;5131274;27;20039;-53
2023/02/23 05:18:49;;;;;;;76.85;37.40;;;;;;;6.84;100.00;101174.16;5132533;27;20386;-50
2023/02/23 05:21:17;;;;;;;68.15;33.95;;;;;;;6.85;100.00;101168.00;5130509;27;20070;-51
2023/02/23 05:23:46;;;;;;;63.97;33.38;;;;;;;6.83;100.00;101172.47;5132429;27;20047;-53
2023/02/23 05:26:15;;;;;;;68.47;33.63;;;;;;;6.82;100.00;101176.00;5132408;27;20048;-51
2023/02/23 05:28:44;;;;;;;64.57;32.97;;;;;;;6.79;100.00;101180.50;5135288;27;20417;-48
2023/02/23 05:31:13;;;;;;;66.10;33.35;;;;;;;6.77;100.00;101185.81;5131532;27;20061;-48
2023/02/23 05:33:42;;;;;;;69.38;34.13;;;;;;;6.81;100.00;101181.31;5133393;27;20042;-48
2023/02/23 05:36:11;;;;;;;68.78;32.83;;;;;;;6.79;100.00;101183.13;5132536;27;20498;-48
2023/02/23 05:38:40;;;;;;;67.60;34.22;;;;;;;6.70;100.00;101182.59;5132304;27;20096;-51
2023/02/23 05:41:10;;;;;;;62.45;31.67;;;;;;;6.75;100.00;101185.03;5131885;27;20055;-51
2023/02/23 05:43:38;;;;;;;68.65;33.65;;;;;;;6.77;100.00;101184.03;5132392;27;20054;-50
2023/02/23 05:46:09;;;;;;;66.93;34.10;;;;;;;6.74;100.00;101183.31;5131974;27;20486;-48
2023/02/23 05:48:37;;;;;;;67.65;33.05;;;;;;;6.74;100.00;101183.31;5131767;27;20035;-47
2023/02/23 05:51:08;;;;;;;63.25;32.72;;;;;;;6.73;100.00;101186.84;5129992;27;20367;-49
2023/02/23 05:53:36;;;;;;;66.47;33.92;;;;;;;6.76;100.00;101184.97;5132952;27;20043;-58
2023/02/23 05:56:06;;;;;;;66.53;32.28;;;;;;;6.75;100.00;101185.03;5134373;27;20410;-58
2023/02/23 05:58:35;;;;;;;68.80;32.97;;;;;;;6.76;100.00;101189.31;5134086;27;20401;-58
2023/02/23 06:01:03;;;;;;;66.78;32.63;;;;;;;6.76;100.00;101181.47;5134381;27;20130;-58
2023/02/23 06:03:33;;;;;;;68.65;32.35;;;;;;;6.73;100.00;101192.06;5133944;27;20054;-59
2023/02/23 06:06:03;;;;;;;65.95;33.28;;;;;;;6.74;100.00;101186.78;5133551;27;20100;-59
2023/02/23 06:08:31;;;;;;;60.78;31.48;;;;;;;6.76;100.00;101189.31;5133966;27;20061;-58
2023/02/23 06:11:00;;;;;;;63.25;31.75;;;;;;;6.74;100.00;101193.78;5133829;27;20490;-58
2023/02/23 06:13:28;;;;;;;63.63;32.75;;;;;;;6.72;100.00;101195.59;5133433;27;20042;-58
2023/02/23 06:16:00;;;;;;;65.50;32.45;;;;;;;6.72;100.00;101193.84;5134600;27;20088;-58
2023/02/23 06:18:29;;;;;;;65.65;33.35;;;;;;;6.71;100.00;101201.75;5133105;27;20436;-58
2023/02/23 06:21:00;;;;;;;67.70;32.75;;;;;;;6.71;100.00;101204.38;5132785;27;20480;-58
2023/02/23 06:23:30;;;;;;;65.33;31.50;;;;;;;6.72;100.00;101206.06;5133281;27;20047;-58
2023/02/23 06:25:59;;;;;;;66.43;33.45;;;;;;;6.68;100.00;101200.13;5134103;27;20520;-58
2023/02/23 06:28:27;;;;;;;66.50;32.28;;;;;;;6.73;100.00;101210.38;5133025;27;20122;-58
2023/02/23 06:30:56;;;;;;;62.38;30.23;;;;;;;6.71;100.00;101212.22;5131808;27;20035;-58
2023/02/23 06:33:25;;;;;;;66.95;33.47;;;;;;;6.66;100.00;101217.63;5132801;27;20549;-59
2023/02/23 06:35:54;;;;;;;67.40;33.60;;;;;;;6.70;100.00;101220.97;5131972;27;20581;-58
2023/02/23 06:38:23;;;;;;;69.80;33.53;;;;;;;6.69;100.00;101219.28;5132934;27;20035;-58
2023/02/23 06:40:52;;;;;;;68.35;32.17;;;;;;;6.66;100.00;101227.25;5134158;27;20051;-59
2023/02/23 06:43:20;;;;;;;67.43;33.30;;;;;;;6.67;100.00;101231.56;5133945;27;20122;-58
2023/02/23 06:45:50;;;;;;;67.28;33.30;;;;;;;6.67;100.00;101226.34;5134115;27;20092;-58
2023/02/23 06:48:18;;;;;;;65.70;32.42;;;;;;;6.65;100.00;101229.00;5133681;27;20083;-58
2023/02/23 06:50:46;;;;;;;67.47;32.45;;;;;;;6.64;100.00;101234.28;5130900;27;20058;-59
2023/02/23 06:53:14;;;;;;;63.00;31.27;;;;;;;6.62;100.00;101236.97;5132368;27;20537;-58
2023/02/23 06:55:44;;;;;;;59.72;30.13;;;;;;;6.59;100.00;101232.72;5132344;27;20488;-58
2023/02/23 06:58:12;;;;;;;64.65;31.42;;;;;;;6.59;100.00;101237.13;5133062;27;20039;-58
2023/02/23 07:00:41;;;;;;;65.30;31.77;;;;;;;6.58;100.00;101240.63;5132795;27;20118;-58
2023/02/23 07:03:10;;;;;;;65.13;31.23;;;;;;;6.61;100.00;101240.50;5132992;27;20050;-58
2023/02/23 07:05:38;;;;;;;58.72;29.67;;;;;;;6.63;100.00;101243.06;5132366;27;20043;-58
2023/02/23 07:08:06;;;;;;;63.72;31.88;;;;;;;6.63;100.00;101250.91;5132964;27;20614;-58
2023/02/23 07:10:34;;;;;;;65.43;31.75;;;;;;;6.61;100.00;101256.16;5133691;27;20043;-58
2023/02/23 07:13:04;;;;;;;64.10;29.40;;;;;;;6.60;100.00;101255.34;5133589;27;20432;-58
2023/02/23 07:15:32;;;;;;;65.22;32.28;;;;;;;6.55;100.00;101257.28;5132434;27;20107;-58
2023/02/23 07:18:00;;;;;;;66.45;31.58;;;;;;;6.59;100.00;101263.25;5133075;27;20067;-58
2023/02/23 07:20:30;;;;;;;65.85;30.73;;;;;;;6.53;100.00;101264.34;5131961;27;20049;-58
2023/02/23 07:22:59;;;;;;;66.57;30.55;;;;;;;6.54;100.00;101262.56;5132727;27;20053;-58
2023/02/23 07:25:27;;;;;;;69.90;31.05;;;;;;;6.58;100.00;101274.59;5133011;27;20497;-58
2023/02/23 07:27:57;;;;;;;67.43;29.90;;;;;;;6.63;100.00;101274.44;5133564;27;20058;-58
2023/02/23 07:30:30;;;;;;;63.90;30.85;;;;;;;6.62;100.00;101270.13;5134006;27;20490;-58
2023/02/23 07:32:58;;;;;;;64.93;31.80;;;;;;;6.62;100.00;101277.94;5134133;27;20047;-58
2023/02/23 07:35:26;;;;;;;63.88;31.00;;;;;;;6.63;100.00;101274.44;5132159;27;20043;-58
2023/02/23 07:37:54;;;;;;;65.68;32.40;;;;;;;6.61;100.00;101290.16;5132664;27;20069;-58
2023/02/23 07:40:23;;;;;;;66.80;31.83;;;;;;;6.63;100.00;101287.50;5132392;27;20035;-58
2023/02/23 07:42:51;;;;;;;63.92;30.88;;;;;;;6.57;100.00;101292.06;5132444;28;20521;-58
2023/02/23 07:45:19;;;;;;;63.42;30.83;;;;;;;6.60;100.00;101291.94;5132150;27;20133;-58
2023/02/23 07:47:49;;;;;;;62.97;30.45;;;;;;;6.66;100.00;101297.81;5132323;27;20057;-58
2023/02/23 07:50:17;;;;;;;52.45;27.27;;;;;;;6.67;100.00;101292.53;5129785;28;20425;-58
2023/02/23 07:52:45;;;;;;;56.00;28.58;;;;;;;6.58;100.00;101301.56;5131013;28;20047;-58
2023/02/23 07:55:13;;;;;;;52.53;27.88;;;;;;;6.58;100.00;101306.81;5132088;27;20039;-58
2023/02/23 07:57:41;;;;;;;53.30;25.83;;;;;;;6.60;100.00;101306.78;5132428;27;20509;-58
2023/02/23 08:00:13;;;;;;;53.70;27.52;;;;;;;6.60;100.00;101306.78;5133489;27;20044;-58
2023/02/23 08:02:41;;;;;;;54.97;27.65;;;;;;;6.66;100.00;101316.13;5131859;28;20607;-58
2023/02/23 08:05:11;;;;;;;55.30;27.70;;;;;;;6.69;100.00;101315.97;5131360;27;20104;-58
2023/02/23 08:07:39;;;;;;;52.63;27.55;;;;;;;6.69;100.00;101313.38;5132018;27;20564;-58
2023/02/23 08:10:08;;;;;;;51.20;25.55;;;;;;;6.70;100.00;101318.53;5132326;28;20067;-58
2023/02/23 08:12:39;;;;;;;54.05;26.17;;;;;;;6.73;100.00;101322.78;5132474;27;20046;-58
2023/02/23 08:15:08;;;;;;;55.28;26.95;;;;;;;6.73;100.00;101322.78;5131198;28;20058;-58
2023/02/23 08:17:36;;;;;;;53.45;26.25;;;;;;;6.68;100.00;101317.75;5131097;27;20520;-58
2023/02/23 08:20:06;;;;;;;50.53;26.33;;;;;;;6.72;100.00;101321.06;5130128;28;20379;-58
2023/02/23 08:22:36;;;;;;;53.17;27.23;;;;;;;6.81;100.00;101315.47;5131770;27;20127;-58
2023/02/23 08:25:16;;;;;;;52.20;25.25;;;;;;;6.79;100.00;101317.31;5131564;28;20074;-58
2023/02/23 08:27:44;;;;;;;49.42;24.73;;;;;;;6.85;100.00;101313.59;5131802;27;20074;-58
2023/02/23 08:30:15;;;;;;;53.33;26.77;;;;;;;6.86;100.00;101313.53;5131282;27;20043;-58
2023/02/23 08:32:43;;;;;;;48.80;26.15;;;;;;;6.87;100.00;101319.59;5131422;27;20511;-58
2023/02/23 08:35:12;;;;;;;48.05;24.10;;;;;;;6.89;100.00;101323.84;5132376;27;20534;-58
2023/02/23 08:37:42;;;;;;;55.20;26.83;;;;;;;6.88;100.00;101329.13;5133371;28;20047;-58
2023/02/23 08:40:14;;;;;;;51.63;25.95;;;;;;;6.92;100.00;101321.09;5133088;27;20081;-58
2023/02/23 08:42:42;;;;;;;51.65;26.05;;;;;;;6.96;100.00;101328.81;5135744;27;20043;-58
2023/02/23 08:45:13;;;;;;;47.25;24.02;;;;;;;6.94;100.00;101337.59;5135615;27;20051;-58
2023/02/23 08:47:41;;;;;;;51.00;26.73;;;;;;;6.96;100.00;101328.81;5133995;27;20142;-58
2023/02/23 08:50:11;;;;;;;59.65;27.98;;;;;;;6.93;100.00;101335.03;5133922;27;20104;-58
2023/02/23 08:52:39;;;;;;;53.60;27.00;;;;;;;7.02;100.00;101345.13;5136523;27;20055;-58
2023/02/23 08:55:12;;;;;;;59.35;29.05;;;;;;;7.03;100.00;101348.56;5134613;27;20047;-58
2023/02/23 08:57:41;;;;;;;52.53;28.08;;;;;;;7.04;100.00;101339.81;5134408;27;20103;-58
2023/02/23 09:00:13;;;;;;;52.85;26.98;;;;;;;7.04;100.00;101348.50;5134410;27;20084;-58
2023/02/23 09:02:41;;;;;;;55.45;26.45;;;;;;;7.02;100.00;101344.25;5134211;27;20517;-58
2023/02/23 09:05:10;;;;;;;54.42;28.88;;;;;;;7.01;100.00;101356.47;5133286;27;20566;-58
2023/02/23 09:07:39;;;;;;;52.03;26.33;;;;;;;7.14;100.00;101354.19;5134185;27;20047;-58
2023/02/23 09:10:13;;;;;;;54.22;26.92;;;;;;;7.16;100.00;101354.13;5134295;27;20039;-58
2023/02/23 09:12:41;;;;;;;53.25;25.17;;;;;;;7.20;100.00;101358.31;5134302;27;20047;-58
2023/02/23 09:15:10;;;;;;;54.03;26.40;;;;;;;7.23;100.00;101361.66;5134017;27;20035;-58
2023/02/23 09:17:40;;;;;;;50.35;25.17;;;;;;;7.23;100.00;101369.50;5132590;27;20074;-58
2023/02/23 09:20:12;;;;;;;55.92;27.35;;;;;;;7.18;100.00;101366.22;5133368;27;20514;-58
2023/02/23 09:22:47;;;;;;;50.92;26.10;;;;;;;7.26;100.00;101368.53;5134056;27;20122;-58
2023/02/23 09:25:21;;;;;;;55.15;26.40;;;;;;;7.23;100.00;101371.28;5134290;27;20540;-58
2023/02/23 09:27:50;;;;;;;55.38;27.88;;;;;;;7.25;100.00;101367.69;5135856;27;20047;-58
2023/02/23 09:30:19;;;;;;;52.47;27.27;;;;;;;7.27;100.00;101376.28;5133671;27;20039;-58
2023/02/23 09:32:50;;;;;;;56.45;28.00;;;;;;;7.33;100.00;101375.19;5133799;27;20051;-58
2023/02/23 09:35:20;;;;;;;58.47;29.58;;;;;;;7.28;100.00;101372.78;5133060;27;20047;-58
2023/02/23 09:37:50;;;;;;;52.42;26.15;;;;;;;7.33;100.00;101375.19;5135429;27;20035;-58
2023/02/23 09:40:24;;;;;;;56.92;26.50;;;;;;;7.39;100.00;101380.16;5135811;27;20043;-58
2023/02/23 09:43:01;;;;;;;51.47;27.02;;;;;;;7.42;100.00;101384.41;5135775;27;20563;-58
2023/02/23 09:45:39;;;;;;;55.50;27.20;;;;;;;7.49;100.00;101383.22;5133123;27;20121;-58
2023/02/23 09:48:15;;;;;;;52.90;27.98;;;;;;;7.51;100.00;101391.00;5133441;27;20054;-58
2023/02/23 09:50:47;;;;;;;58.50;27.40;;;;;;;7.51;100.00;101394.50;5131003;27;20443;-58
2023/02/23 09:53:29;;;;;;;53.20;26.42;;;;;;;7.56;100.00;101395.13;5131974;27;20103;-58
2023/02/23 09:56:10;;;;;;;53.70;25.23;;;;;;;7.44;100.00;101395.66;5133283;27;20074;-58
2023/02/23 09:58:39;;;;;;;49.35;25.48;;;;;;;7.38;100.00;101396.78;5133353;27;20059;-58
2023/02/23 10:01:41;;;;;;;54.38;25.85;;;;;;;7.48;100.00;101391.97;5132898;27;20514;-58
2023/02/23 10:04:16;;;;;;;48.38;24.98;;;;;;;7.50;100.00;101400.63;5103906;27;20502;-58
2023/02/23 10:06:54;;;;;;;48.10;25.02;;;;;;;7.49;100.00;101401.53;5134353;27;20502;-58
2023/02/23 10:09:33;;;;;;;52.58;26.02;;;;;;;7.61;100.00;101397.56;5132552;27;20506;-58
2023/02/23 10:12:09;;;;;;;53.78;26.92;;;;;;;7.62;100.00;101399.22;5133073;27;20051;-58
2023/02/23 10:15:00;;;;;;;52.92;26.13;;;;;;;7.69;100.00;101394.56;5132242;27;20039;-58
2023/02/23 10:17:40;;;;;;;49.60;24.92;;;;;;;7.73;100.00;101393.53;5134212;27;20046;-58
2023/02/23 10:20:18;;;;;;;51.60;26.08;;;;;;;7.72;100.00;101397.09;5130881;27;20047;-59
2023/02/23 10:22:49;;;;;;;53.67;25.92;;;;;;;7.78;100.00;101387.19;5132058;27;20536;-58
2023/02/23 10:25:24;;;;;;;48.90;24.65;;;;;;;7.86;100.00;101391.22;5130361;27;20051;-47
2023/02/23 10:27:56;;;;;;;52.67;26.45;;;;;;;7.84;100.00;101395.66;5131586;27;20738;-46
2023/02/23 10:30:27;;;;;;;53.70;25.77;;;;;;;7.90;100.00;101392.78;5133813;27;20686;-58
2023/02/23 10:33:04;;;;;;;54.78;27.15;;;;;;;7.92;100.00;101398.78;5132456;27;20452;-58
2023/02/23 10:35:34;;;;;;;53.70;28.15;;;;;;;7.90;100.00;101393.63;5131203;27;20042;-59
2023/02/23 10:38:05;;;;;;;56.33;28.15;;;;;;;7.95;100.00;101396.88;5133650;27;20091;-59
2023/02/23 10:40:35;;;;;;;52.10;26.25;;;;;;;7.98;100.00;101397.69;5131649;27;20039;-59
2023/02/23 10:43:04;;;;;;;50.45;26.38;;;;;;;7.97;100.00;101406.47;5130787;27;20043;-59
2023/02/23 10:45:38;;;;;;;50.13;27.33;;;;;;;7.95;100.00;101404.75;5131112;27;20059;-48
2023/02/23 10:48:09;;;;;;;54.08;27.73;;;;;;;7.93;100.00;101406.59;5130968;27;20046;-47
2023/02/23 10:50:39;;;;;;;48.80;26.08;;;;;;;7.97;100.00;101411.69;5131195;27;20546;-47
2023/02/23 10:53:15;;;;;;;51.72;26.48;;;;;;;7.94;100.00;101416.13;5134090;27;20104;-48
2023/02/23 10:55:45;;;;;;;50.50;26.42;;;;;;;7.94;100.00;101417.91;5133644;27;20051;-47
2023/02/23 10:58:19;;;;;;;53.83;26.33;;;;;;;7.96;100.00;101418.69;5130609;27;20039;-47
2023/02/23 11:00:53;;;;;;;50.63;25.20;;;;;;;7.97;100.00;101419.56;5130368;27;20039;-47
2023/02/23 11:03:27;;;;;;;48.35;24.35;;;;;;;7.95;100.00;101422.25;5130897;27;20505;-59
2023/02/23 11:05:55;;;;;;;51.38;26.98;;;;;;;7.92;100.00;101415.38;5130447;27;20063;-59
2023/02/23 11:08:31;;;;;;;49.53;24.88;;;;;;;7.95;100.00;101420.47;5131479;27;20474;-59
2023/02/23 11:11:08;;;;;;;49.83;25.30;;;;;;;7.98;100.00;101422.09;5131552;27;20427;-59
2023/02/23 11:13:40;;;;;;;50.17;24.77;;;;;;;8.02;100.00;101422.81;5131276;27;20494;-59
2023/02/23 11:16:12;;;;;;;48.83;24.40;;;;;;;7.85;100.00;101423.56;5131206;27;20062;-59
2023/02/23 11:18:43;;;;;;;50.13;25.10;;;;;;;7.92;100.00;101420.59;5129585;27;20090;-59
2023/02/23 11:21:17;;;;;;;48.42;24.90;;;;;;;7.98;100.00;101424.72;5129661;27;20047;-59
2023/02/23 11:23:46;;;;;;;56.75;27.42;;;;;;;7.94;100.00;101420.53;5132093;27;20394;-59
2023/02/23 11:26:22;;;;;;;50.42;24.80;;;;;;;7.94;100.00;101416.13;5130680;27;20067;-59
2023/02/23 11:28:56;;;;;;;48.30;24.02;;;;;;;8.00;100.00;101412.38;5130735;27;20075;-59
2023/02/23 11:31:33;;;;;;;52.75;25.45;;;;;;;8.01;100.00;101411.47;5131353;27;20054;-59
2023/02/23 11:34:03;;;;;;;46.30;24.75;;;;;;;8.03;100.00;101401.78;5131235;27;20547;-59
2023/02/23 11:36:34;;;;;;;47.85;24.73;;;;;;;8.06;100.00;101406.88;5130847;27;20418;-59
2023/02/23 11:39:08;;;;;;;49.20;23.85;;;;;;;8.10;100.00;101413.69;5133600;27;20387;-58
2023/02/23 11:41:36;;;;;;;47.80;23.63;;;;;;;8.11;100.00;101404.91;5133435;27;20071;-59
2023/02/23 11:44:05;;;;;;;50.13;23.90;;;;;;;8.10;100.00;101410.22;5133770;27;20530;-58
2023/02/23 11:46:38;;;;;;;55.65;25.10;;;;;;;8.08;100.00;101407.66;5132208;27;20447;-58
2023/02/23 11:49:07;;;;;;;;;;;;;;;8.10;100.00;101412.84;5131046;27;20055;-58
2023/02/23 11:51:38;;;;;;;46.30;21.42;;;;;;;8.17;100.00;101409.00;5127278;28;19923;-59
2023/02/23 11:54:09;;;;;;;49.00;23.02;;;;;;;8.15;100.00;101413.47;5130126;27;20482;-59
2023/02/23 11:56:37;;;;;;;44.33;22.58;;;;;;;8.06;100.00;101414.75;5130862;27;20443;-59
2023/02/23 11:59:15;;;;;;;44.50;21.40;;;;;;;8.11;100.00;101411.91;5131870;27;20093;-59
2023/02/23 12:01:47;;;;;;;47.33;22.25;;;;;;;8.15;100.00;101417.84;5129308;28;20542;-60
2023/02/23 12:04:30;;;;;;;49.20;23.25;;;;;;;8.13;100.00;101410.91;5129310;27;20150;-59
2023/02/23 12:07:12;;;;;;;;;;;;;;;8.17;100.00;101409.00;5130135;28;20428;-59
2023/02/23 12:09:42;;;;;;;42.38;21.17;;;;;;;8.10;100.00;101403.19;5131451;27;19919;-59
2023/02/23 12:12:15;;;;;;;46.65;21.92;;;;;;;8.06;100.00;101403.44;5131044;28;20503;-59
2023/02/23 12:14:50;;;;;;;42.20;20.85;;;;;;;8.11;100.00;101404.03;5132244;27;20055;-59
2023/02/23 12:17:26;;;;;;;38.53;18.25;;;;;;;8.09;100.00;101404.13;5134040;27;20116;-59
2023/02/23 12:19:59;;;;;;;40.80;19.85;;;;;;;8.09;100.00;101408.50;5132135;27;20070;-59
2023/02/23 12:22:33;;;;;;;39.35;19.27;;;;;;;8.08;100.00;101401.56;5133696;27;20054;-60
2023/02/23 12:25:04;;;;;;;40.88;19.23;;;;;;;8.12;100.00;101408.38;5136719;27;20043;-60
2023/02/23 12:27:40;;;;;;;36.85;17.92;;;;;;;8.18;100.00;101402.00;5136320;27;20478;-60
2023/02/23 12:30:16;;;;;;;35.22;17.27;;;;;;;8.19;100.00;101401.91;5133810;27;20119;-60
2023/02/23 12:32:50;;;;;;;36.75;18.30;;;;;;;8.16;100.00;101411.72;5135417;27;20363;-60
2023/02/23 12:35:23;;;;;;;33.55;17.33;;;;;;;8.12;100.00;101411.81;5136969;27;20051;-60
2023/02/23 12:37:59;;;;;;;36.67;17.23;;;;;;;8.18;100.00;101413.34;5133682;27;20054;-60
2023/02/23 12:40:29;;;;;;;37.80;18.38;;;;;;;8.20;100.00;101414.09;5132798;27;20047;-60
2023/02/23 12:43:05;;;;;;;40.53;18.77;;;;;;;8.21;100.00;101415.81;5135163;27;20043;-59
2023/02/23 12:45:42;;;;;;;41.00;18.00;;;;;;;8.19;100.00;101414.19;5133872;27;20047;-59
2023/02/23 12:48:33;;;;;;;37.80;17.50;;;;;;;8.17;100.00;101414.25;5133026;27;20046;-60
2023/02/23 12:51:09;;;;;;;36.10;16.98;;;;;;;8.20;100.00;101414.09;5131483;27;20061;-60
2023/02/23 12:53:40;;;;;;;34.58;17.23;;;;;;;8.20;100.00;101416.72;5133182;27;20112;-60